Time;durP1;ratioP1;P1;durP2;ratioP2;P2;SDS_P1;SDS_P2;PMS_P1;PMS_P2;Temp;Humidity;BMP_temperature;BMP_pressure;BME280_temperature;BME280_humidity;BME280_pressure;Samples;Min_cycle;Max_cycle;Signal;HPM_P1;HPM_P2
2021/12/26 00:01:39;;;;;;;12.93;4.50;;;;;;;-13.25;94.28;98143.19;4826935;29;20422;-69
2021/12/26 00:04:05;;;;;;;11.40;3.97;;;;;;;-13.32;94.46;98122.63;4858249;29;20061;-67
2021/12/26 00:06:31;;;;;;;12.05;3.90;;;;;;;-13.30;94.96;98128.63;4842036;29;20068;-67
2021/12/26 00:08:59;;;;;;;11.30;3.20;;;;;;;-13.31;95.39;98132.09;4826830;29;20136;-67
2021/12/26 00:11:25;;;;;;;11.82;3.47;;;;;;;-13.44;95.86;98108.22;4858408;29;20065;-67
2021/12/26 00:13:53;;;;;;;13.43;3.75;;;;;;;-13.29;96.14;98127.72;4841778;29;20053;-68
2021/12/26 00:16:19;;;;;;;10.35;3.60;;;;;;;-13.40;96.41;98109.84;4826898;29;20569;-67
2021/12/26 00:18:46;;;;;;;11.95;3.80;;;;;;;-13.31;96.94;98113.91;4858923;29;20486;-66
2021/12/26 00:21:14;;;;;;;12.32;3.83;;;;;;;-13.24;96.87;98116.28;4858399;29;20521;-66
2021/12/26 00:23:40;;;;;;;14.07;3.80;;;;;;;-13.22;97.65;98121.44;4842371;29;20590;-68
2021/12/26 00:26:06;;;;;;;10.15;3.83;;;;;;;-13.25;97.70;98113.75;4841953;29;20118;-68
2021/12/26 00:28:32;;;;;;;12.65;3.83;;;;;;;-13.17;98.05;98123.00;4858816;29;20128;-66
2021/12/26 00:30:58;;;;;;;11.50;4.47;;;;;;;-13.28;98.10;98080.03;4858708;29;20069;-67
2021/12/26 00:33:24;;;;;;;12.13;4.00;;;;;;;-12.98;98.25;98127.66;4856858;29;20057;-66
2021/12/26 00:35:51;;;;;;;10.48;3.55;;;;;;;-12.91;98.32;98111.84;4841462;29;20057;-67
2021/12/26 00:38:17;;;;;;;12.27;3.55;;;;;;;-12.63;98.48;98126.63;4858312;29;20159;-67
2021/12/26 00:40:44;;;;;;;10.13;2.75;;;;;;;-12.53;97.71;98130.66;4810683;29;20062;-66
2021/12/26 00:43:11;;;;;;;8.95;2.65;;;;;;;-12.34;98.32;98130.94;4841497;29;20148;-68
2021/12/26 00:45:39;;;;;;;8.80;2.78;;;;;;;-12.17;97.76;98127.81;4856542;29;20069;-67
2021/12/26 00:48:07;;;;;;;11.70;3.17;;;;;;;-11.87;97.53;98125.13;4841835;29;20085;-67
2021/12/26 00:50:36;;;;;;;8.32;2.35;;;;;;;-11.95;97.18;98083.69;4841578;29;20061;-66
2021/12/26 00:53:04;;;;;;;9.52;3.45;;;;;;;-11.51;96.58;98133.41;4810733;29;20213;-67
2021/12/26 00:55:30;;;;;;;8.85;3.00;;;;;;;-11.45;96.04;98127.97;4841133;29;20053;-67
2021/12/26 00:57:56;;;;;;;9.40;3.78;;;;;;;-11.62;95.97;98073.84;4841074;29;20109;-67
2021/12/26 01:00:30;;;;;;;8.88;3.53;;;;;;;-11.55;95.83;98077.06;4841211;29;20057;-68
2021/12/26 01:02:59;;;;;;;9.75;2.90;;;;;;;-11.21;95.40;98118.44;4841699;29;20065;-67
2021/12/26 01:05:26;;;;;;;6.70;1.92;;;;;;;-11.31;95.26;98098.81;4841505;29;20066;-67
2021/12/26 01:10:24;;;;;;;11.02;3.22;;;;;;;-11.17;95.22;98101.78;4856324;29;20053;-69
2021/12/26 01:12:51;;;;;;;10.57;3.00;;;;;;;-11.21;95.65;98092.38;4825846;29;20057;-68
2021/12/26 01:15:19;;;;;;;11.70;3.10;;;;;;;-11.26;95.69;98089.06;4841314;29;20550;-65
2021/12/26 01:17:47;;;;;;;10.27;2.40;;;;;;;-11.30;95.81;98100.50;4828648;29;20568;-67
2021/12/26 01:20:40;;;;;;;8.73;2.92;;;;;;;-11.31;96.04;98104.03;4835611;29;20064;-65
2021/12/26 01:23:15;;;;;;;9.68;2.97;;;;;;;-11.28;96.23;98098.72;4846732;29;20061;-66
2021/12/26 01:25:41;;;;;;;8.35;2.78;;;;;;;-11.32;96.85;98111.00;4844764;29;20479;-66
2021/12/26 01:28:08;;;;;;;11.13;4.00;;;;;;;-11.36;96.51;98085.09;4860187;29;20125;-66
2021/12/26 01:30:38;;;;;;;9.15;3.10;;;;;;;-11.57;96.94;98066.69;4844836;29;20467;-66
2021/12/26 01:33:12;;;;;;;8.73;3.20;;;;;;;-11.45;97.75;98081.03;4844737;29;20076;-68
2021/12/26 01:36:07;;;;;;;8.60;3.05;;;;;;;-11.55;97.85;98072.72;4879849;29;20056;-67
2021/12/26 01:38:55;;;;;;;10.50;3.22;;;;;;;-11.58;98.48;98075.44;4847018;29;20096;-67
2021/12/26 01:41:53;;;;;;;9.35;3.25;;;;;;;-11.57;98.71;98082.34;4859491;29;20372;-66
2021/12/26 01:44:40;;;;;;;7.82;2.65;;;;;;;-11.57;99.07;98086.69;4847016;29;20455;-68
2021/12/26 01:47:11;;;;;;;9.60;3.92;;;;;;;-11.59;98.83;98083.28;4859510;29;20064;-67
2021/12/26 01:49:37;;;;;;;11.85;4.15;;;;;;;-11.55;99.22;98093.56;4844307;29;20060;-67
2021/12/26 01:52:05;;;;;;;10.25;3.33;;;;;;;-11.54;99.18;98082.22;4844416;29;20062;-65
2021/12/26 01:54:39;;;;;;;10.80;3.92;;;;;;;-11.35;98.47;98092.00;4859724;29;20061;-67
2021/12/26 01:57:09;;;;;;;10.55;3.80;;;;;;;-11.27;98.20;98087.34;4844141;29;20111;-66
2021/12/26 01:59:36;;;;;;;10.55;3.70;;;;;;;-11.15;97.34;98094.75;4859531;29;20077;-68
2021/12/26 02:02:08;;;;;;;9.10;3.58;;;;;;;-11.14;96.96;98086.03;4859305;29;20065;-68
2021/12/26 02:04:37;;;;;;;10.15;3.42;;;;;;;-11.14;97.28;98083.41;4844332;29;20060;-67
2021/12/26 02:07:05;;;;;;;9.95;3.35;;;;;;;-11.05;97.11;98075.22;4844437;29;20121;-66
2021/12/26 02:09:31;;;;;;;10.20;4.10;;;;;;;-11.05;97.11;98048.28;4861034;29;20058;-67
2021/12/26 02:11:59;;;;;;;11.38;3.05;;;;;;;-11.03;97.10;98055.16;4861304;29;20062;-67
2021/12/26 02:14:26;;;;;;;8.30;2.92;;;;;;;-10.82;96.69;98074.38;4844336;29;20061;-68
2021/12/26 02:17:24;;;;;;;10.00;4.00;;;;;;;-10.78;97.08;98068.13;4879805;29;20528;-66
2021/12/26 02:19:53;;;;;;;12.00;3.80;;;;;;;-10.73;96.67;98066.19;4859762;29;20060;-67
2021/12/26 02:22:27;;;;;;;11.23;4.00;;;;;;;-10.75;96.55;98064.53;4843708;29;20429;-66
2021/12/26 02:25:13;;;;;;;9.27;2.67;;;;;;;-10.76;96.69;98055.84;4859711;29;20065;-67
2021/12/26 02:27:42;;;;;;;11.05;3.95;;;;;;;-10.72;96.87;98065.28;4858931;29;20526;-67
2021/12/26 02:30:12;;;;;;;8.93;3.03;;;;;;;-10.67;97.18;98070.34;4843654;29;20151;-68
2021/12/26 02:32:41;;;;;;;9.65;4.13;;;;;;;-10.75;97.22;98049.75;4844681;29;20095;-68
2021/12/26 02:35:07;;;;;;;10.73;4.60;;;;;;;-10.77;97.45;98054.16;4828386;29;20061;-67
2021/12/26 02:37:33;;;;;;;11.73;4.22;;;;;;;-11.08;98.07;98032.75;4844481;29;20109;-66
2021/12/26 02:39:59;;;;;;;10.90;4.40;;;;;;;-10.88;98.16;98055.50;4843635;29;20049;-68
2021/12/26 02:42:25;;;;;;;10.38;4.43;;;;;;;-10.88;98.14;98063.31;4859337;29;20112;-67
2021/12/26 02:44:53;;;;;;;9.27;3.70;;;;;;;-11.02;98.90;98059.47;4844175;29;20438;-68
2021/12/26 02:47:41;;;;;;;9.38;3.55;;;;;;;-11.09;99.37;98049.31;4843665;29;20057;-67
2021/12/26 02:50:13;;;;;;;11.93;4.38;;;;;;;-11.25;99.25;98030.78;4843930;29;20049;-68
2021/12/26 02:52:39;;;;;;;9.15;3.53;;;;;;;-11.08;99.81;98058.84;4843988;29;20073;-67
2021/12/26 02:55:06;;;;;;;11.13;4.80;;;;;;;-11.12;100.00;98057.25;4843650;29;20602;-67
2021/12/26 02:57:32;;;;;;;10.98;3.83;;;;;;;-11.32;100.00;98029.31;4843431;29;20126;-67
2021/12/26 03:00:10;;;;;;;12.48;4.25;;;;;;;-11.44;100.00;98000.19;4828327;29;20395;-66
2021/12/26 03:02:43;;;;;;;9.98;3.58;;;;;;;-11.35;100.00;98029.44;4843663;29;20057;-67
2021/12/26 03:05:10;;;;;;;11.95;4.32;;;;;;;-11.14;100.00;98044.28;4843272;29;20422;-68
2021/12/26 03:07:36;;;;;;;9.50;3.17;;;;;;;-11.12;100.00;98042.44;4858949;29;20091;-67
2021/12/26 03:10:05;;;;;;;9.20;3.20;;;;;;;-11.20;100.00;98013.22;4843279;29;20506;-67
2021/12/26 03:12:33;;;;;;;10.80;3.80;;;;;;;-11.03;100.00;98044.72;4858972;29;20061;-67
2021/12/26 03:14:58;;;;;;;12.27;3.53;;;;;;;-11.17;100.00;98023.53;4843687;29;20065;-68
2021/12/26 03:17:24;;;;;;;10.85;3.50;;;;;;;-11.09;100.00;98013.66;4843350;29;20053;-67
2021/12/26 03:19:50;;;;;;;11.68;4.65;;;;;;;-11.08;100.00;98017.94;4843119;29;20073;-68
2021/12/26 03:22:18;;;;;;;9.05;3.80;;;;;;;-11.02;100.00;98022.94;4843164;29;20510;-67
2021/12/26 03:24:45;;;;;;;10.40;4.63;;;;;;;-11.21;100.00;97990.66;4858355;29;20128;-68
2021/12/26 03:27:12;;;;;;;10.00;4.10;;;;;;;-10.99;100.00;98017.63;4843020;29;20050;-68
2021/12/26 03:29:39;;;;;;;9.13;3.92;;;;;;;-11.01;100.00;98029.84;4843680;29;20045;-67
2021/12/26 03:32:12;;;;;;;9.25;3.05;;;;;;;-11.03;100.00;98020.41;4843788;29;20147;-68
2021/12/26 03:34:47;;;;;;;10.93;4.22;;;;;;;-10.98;100.00;98019.31;4843215;29;20140;-66
2021/12/26 03:37:13;;;;;;;11.73;4.57;;;;;;;-10.93;100.00;98001.72;4858141;29;20515;-68
2021/12/26 03:39:39;;;;;;;10.88;3.92;;;;;;;-10.91;100.00;98003.41;4842595;29;20053;-67
2021/12/26 03:42:06;;;;;;;12.27;4.65;;;;;;;-10.89;100.00;98007.69;4842964;29;20065;-67
2021/12/26 03:44:32;;;;;;;10.40;4.03;;;;;;;-10.94;100.00;97994.78;4827376;29;20426;-67
2021/12/26 03:46:59;;;;;;;11.15;3.80;;;;;;;-10.92;100.00;97997.34;4842720;29;20140;-68
2021/12/26 03:49:26;;;;;;;10.35;4.38;;;;;;;-10.87;100.00;98005.00;4842260;29;20491;-68
2021/12/26 03:51:52;;;;;;;11.73;4.68;;;;;;;-10.82;100.00;98003.03;4843057;29;20057;-67
2021/12/26 03:54:21;;;;;;;14.48;3.97;;;;;;;-10.90;100.00;97997.28;4857626;29;20135;-66
2021/12/26 03:56:47;;;;;;;10.63;4.57;;;;;;;-10.84;100.00;98007.50;4857685;29;20436;-67
2021/12/26 03:59:17;;;;;;;12.27;4.22;;;;;;;-10.76;100.00;98013.25;4842477;29;20126;-67
2021/12/26 04:01:44;;;;;;;12.95;3.75;;;;;;;-10.77;100.00;97998.50;4842525;29;20470;-68
2021/12/26 04:04:10;;;;;;;10.48;4.10;;;;;;;-10.83;100.00;98002.19;4842362;29;20061;-67
2021/12/26 04:06:36;;;;;;;11.43;4.43;;;;;;;-10.88;100.00;98009.38;4842577;29;20344;-67
2021/12/26 04:09:02;;;;;;;13.38;4.57;;;;;;;-10.95;100.00;98015.72;4842074;29;20079;-67
2021/12/26 04:11:29;;;;;;;9.85;3.65;;;;;;;-10.99;100.00;97999.34;4842421;29;20057;-67
2021/12/26 04:13:55;;;;;;;10.95;4.28;;;;;;;-10.78;100.00;98009.88;4842676;29;20060;-68
2021/12/26 04:16:21;;;;;;;9.45;4.22;;;;;;;-10.59;100.00;98003.00;4857960;29;20140;-67
2021/12/26 04:18:47;;;;;;;10.15;3.70;;;;;;;-10.39;100.00;98017.00;4842167;29;20080;-68
2021/12/26 04:21:13;;;;;;;10.60;4.32;;;;;;;-10.40;99.66;98008.31;4842394;29;20158;-67
2021/12/26 04:23:54;;;;;;;9.63;3.85;;;;;;;-10.37;99.49;98005.59;4844504;29;20054;-68
2021/12/26 04:26:21;;;;;;;10.30;3.85;;;;;;;-10.39;99.51;98001.34;4842135;29;20050;-68
2021/12/26 04:28:47;;;;;;;10.20;4.55;;;;;;;-10.30;99.24;97998.34;4842970;29;20287;-66
2021/12/26 04:31:13;;;;;;;10.70;4.30;;;;;;;-10.36;98.87;97985.53;4827365;29;20159;-68
2021/12/26 04:33:39;;;;;;;14.38;4.50;;;;;;;-10.55;98.73;97960.19;4827104;29;20084;-68
2021/12/26 04:36:05;;;;;;;9.20;3.50;;;;;;;-10.34;98.58;98004.63;4841993;29;20566;-68
2021/12/26 04:38:31;;;;;;;10.10;4.10;;;;;;;-10.39;98.46;98001.34;4857315;29;20065;-68
2021/12/26 04:40:57;;;;;;;11.48;4.25;;;;;;;-10.40;98.89;97999.66;4841734;29;20561;-68
2021/12/26 04:43:36;;;;;;;9.93;4.20;;;;;;;-10.64;98.27;97970.16;4843748;29;20100;-67
2021/12/26 04:46:12;;;;;;;8.88;4.07;;;;;;;-10.56;98.37;97968.94;4858567;29;20455;-68
2021/12/26 04:48:43;;;;;;;10.05;3.90;;;;;;;-10.35;98.01;97998.53;4842291;29;20061;-68
2021/12/26 04:51:10;;;;;;;9.75;3.60;;;;;;;-10.34;97.89;97996.78;4856731;29;20065;-68
2021/12/26 04:53:37;;;;;;;10.50;4.15;;;;;;;-10.37;97.87;97995.16;4827147;29;20062;-68
2021/12/26 04:56:04;;;;;;;11.93;4.05;;;;;;;-10.38;97.73;97995.19;4857162;29;20053;-69
2021/12/26 04:58:29;;;;;;;10.65;3.65;;;;;;;-10.41;97.52;98008.41;4827183;29;20060;-68
2021/12/26 05:00:55;;;;;;;9.35;3.50;;;;;;;-10.53;97.90;98001.88;4842812;29;20061;-68
2021/12/26 05:03:21;;;;;;;9.63;3.72;;;;;;;-10.60;98.12;98001.31;4842852;29;20068;-68
2021/12/26 05:05:47;;;;;;;11.32;3.45;;;;;;;-10.57;98.23;98011.59;4842036;29;20050;-68
2021/12/26 05:08:13;;;;;;;10.27;4.10;;;;;;;-10.86;98.11;97959.72;4841727;29;20470;-69
2021/12/26 05:10:40;;;;;;;9.75;3.22;;;;;;;-10.64;97.99;97994.47;4841947;29;20129;-67
2021/12/26 05:13:07;;;;;;;9.52;3.45;;;;;;;-10.62;97.35;97990.06;4843352;29;20384;-68
2021/12/26 05:15:33;;;;;;;10.60;3.70;;;;;;;-10.42;97.20;98022.34;4844475;29;20056;-68
2021/12/26 05:18:00;;;;;;;9.77;3.67;;;;;;;-10.60;97.14;97998.69;4829294;29;20061;-70
2021/12/26 05:20:27;;;;;;;10.77;3.58;;;;;;;-10.50;97.28;98010.44;4860168;29;20076;-67
2021/12/26 05:22:55;;;;;;;10.90;3.78;;;;;;;-10.56;97.50;97999.44;4842167;29;20156;-68
2021/12/26 05:25:22;;;;;;;9.85;3.55;;;;;;;-10.64;97.42;98023.19;4826178;29;20581;-69
2021/12/26 05:27:48;;;;;;;10.80;4.38;;;;;;;-10.74;97.97;98011.44;4841389;29;20106;-68
2021/12/26 05:30:17;;;;;;;11.63;3.72;;;;;;;-10.93;98.32;97991.28;4841549;29;20065;-67
2021/12/26 05:32:44;;;;;;;10.55;4.20;;;;;;;-10.71;98.56;98016.56;4840580;29;20483;-67
2021/12/26 05:35:13;;;;;;;12.07;3.95;;;;;;;-10.65;98.51;98025.88;4856034;29;20144;-67
2021/12/26 05:37:39;;;;;;;11.80;4.18;;;;;;;-10.59;98.03;98021.28;4840463;29;20514;-68
2021/12/26 05:40:08;;;;;;;9.38;3.78;;;;;;;-10.61;97.76;98015.25;4840523;29;20057;-68
2021/12/26 05:42:36;;;;;;;11.88;4.85;;;;;;;-10.54;97.28;98019.31;4858666;29;20160;-68
2021/12/26 05:45:04;;;;;;;9.82;3.88;;;;;;;-10.48;97.55;98026.91;4858976;29;20057;-67
2021/12/26 05:47:32;;;;;;;11.55;4.90;;;;;;;-10.46;97.26;98030.34;4844129;29;20493;-69
2021/12/26 05:50:04;;;;;;;10.70;4.03;;;;;;;-10.48;97.27;98008.63;4859927;29;20057;-69
2021/12/26 05:52:30;;;;;;;10.43;4.45;;;;;;;-10.38;97.08;98008.25;4844833;29;20561;-69
2021/12/26 05:55:00;;;;;;;12.18;5.28;;;;;;;-10.41;97.01;98013.63;4829921;29;20212;-69
2021/12/26 05:57:26;;;;;;;13.45;4.32;;;;;;;-10.30;96.95;98016.66;4845237;29;20147;-69
2021/12/26 05:59:53;;;;;;;12.05;4.13;;;;;;;-10.60;96.67;97964.75;4859914;29;20057;-69
2021/12/26 06:02:19;;;;;;;11.77;4.68;;;;;;;-10.31;96.76;98005.34;4830046;29;20067;-69
2021/12/26 06:04:46;;;;;;;15.27;4.97;;;;;;;-10.56;96.38;97948.06;4864106;29;20064;-69
2021/12/26 06:07:13;;;;;;;11.50;4.38;;;;;;;-10.22;96.58;97993.63;4865985;29;20101;-68
2021/12/26 06:09:39;;;;;;;11.02;4.38;;;;;;;-10.14;96.48;98001.13;4850344;29;20197;-69
2021/12/26 06:12:06;;;;;;;11.02;3.83;;;;;;;-10.14;96.26;98017.66;4833805;29;20093;-68
2021/12/26 06:14:32;;;;;;;12.73;4.80;;;;;;;-10.09;96.58;98018.34;4849363;29;20652;-68
2021/12/26 06:16:59;;;;;;;11.50;3.50;;;;;;;-10.18;96.74;97989.13;4833496;29;20076;-69
2021/12/26 06:19:43;;;;;;;12.52;5.30;;;;;;;-10.09;96.13;98000.03;4849815;29;20510;-69
2021/12/26 06:22:30;;;;;;;10.75;3.88;;;;;;;-10.20;96.05;97971.75;4851404;29;20065;-69
2021/12/26 06:25:15;;;;;;;12.20;3.63;;;;;;;-10.01;96.25;97999.72;4849987;29;20049;-68
2021/12/26 06:27:52;;;;;;;11.68;4.25;;;;;;;-10.04;96.43;97998.06;4833543;29;20064;-69
2021/12/26 06:30:18;;;;;;;13.63;4.93;;;;;;;-10.05;96.19;97980.72;4832207;29;20140;-69
2021/12/26 06:33:03;;;;;;;10.07;4.00;;;;;;;-9.93;95.69;97992.41;4849585;29;20067;-69
2021/12/26 06:35:58;;;;;;;14.10;4.75;;;;;;;-9.92;96.16;98001.94;4817856;29;20062;-69
2021/12/26 06:38:49;;;;;;;11.55;4.32;;;;;;;-9.81;94.90;97985.78;4842953;29;20410;-69
2021/12/26 06:41:45;;;;;;;12.18;4.63;;;;;;;-9.60;93.84;97982.22;4866068;29;20061;-69
2021/12/26 06:44:23;;;;;;;13.25;5.38;;;;;;;-9.74;94.78;97984.59;4851102;29;20113;-69
2021/12/26 06:46:49;;;;;;;13.63;4.30;;;;;;;-9.75;94.96;97988.13;4833308;29;20063;-69
2021/12/26 06:49:44;;;;;;;10.98;4.20;;;;;;;-9.74;95.76;97989.84;4847093;29;20064;-69
2021/12/26 06:52:10;;;;;;;15.43;4.40;;;;;;;-9.77;96.21;97989.97;4848092;29;20485;-69
2021/12/26 06:54:36;;;;;;;11.68;4.72;;;;;;;-9.87;96.32;97968.63;4847394;29;20075;-69
2021/12/26 06:57:03;;;;;;;10.23;4.40;;;;;;;-9.67;96.42;97996.50;4829022;29;20081;-67
2021/12/26 06:59:29;;;;;;;11.95;4.20;;;;;;;-9.64;96.70;97988.50;4842942;29;20061;-69
2021/12/26 07:01:55;;;;;;;13.90;4.78;;;;;;;-9.72;96.33;97972.31;4859559;29;20142;-68
2021/12/26 07:04:30;;;;;;;13.43;4.85;;;;;;;-9.59;96.08;97978.69;4862242;29;20065;-67
2021/12/26 07:06:55;;;;;;;11.02;4.32;;;;;;;-9.55;96.02;97972.41;4833318;29;20525;-68
2021/12/26 07:09:27;;;;;;;12.45;4.13;;;;;;;-9.52;96.42;97964.41;4842543;29;20056;-68
2021/12/26 07:11:53;;;;;;;20.92;5.10;;;;;;;-9.47;96.08;97987.75;4858328;29;20064;-69
2021/12/26 07:14:42;;;;;;;12.38;4.43;;;;;;;-9.68;96.25;97946.91;4850816;29;20140;-68
2021/12/26 07:17:10;;;;;;;12.27;4.30;;;;;;;-9.41;96.41;97976.19;4840668;29;20056;-68
2021/12/26 07:19:38;;;;;;;11.05;4.30;;;;;;;-9.50;95.97;97967.00;4861284;29;20113;-69
2021/12/26 07:22:12;;;;;;;20.08;4.38;;;;;;;-9.51;95.37;97968.72;4854397;29;20378;-67
2021/12/26 07:24:43;;;;;;;11.35;4.05;;;;;;;-9.36;95.51;97963.72;4830202;29;20061;-69
2021/12/26 07:27:11;;;;;;;20.00;5.03;;;;;;;-9.38;95.52;97952.50;4848675;29;20057;-69
2021/12/26 07:29:58;;;;;;;13.80;4.40;;;;;;;-9.44;95.79;97951.00;4837500;29;20429;-69
2021/12/26 07:32:25;;;;;;;12.18;3.78;;;;;;;-9.59;95.66;97905.47;4836572;29;20127;-68
2021/12/26 07:34:52;;;;;;;12.73;4.38;;;;;;;-9.25;95.60;97966.69;4831169;29;20069;-70
2021/12/26 07:37:20;;;;;;;11.93;4.10;;;;;;;-9.43;95.56;97930.91;4815746;29;20410;-68
2021/12/26 07:39:47;;;;;;;9.77;3.75;;;;;;;-9.31;95.60;97946.06;4838687;29;20163;-71
2021/12/26 07:42:13;;;;;;;12.68;4.20;;;;;;;-9.17;94.23;97964.59;4814952;29;20089;-69
2021/12/26 07:44:59;;;;;;;12.13;3.05;;;;;;;-9.30;94.98;97932.91;4835253;29;20064;-68
2021/12/26 07:47:43;;;;;;;9.48;3.60;;;;;;;-9.20;94.49;97956.88;4829881;29;20055;-68
2021/12/26 07:50:09;;;;;;;10.90;4.50;;;;;;;-9.14;94.89;97963.59;4824857;29;20091;-69
2021/12/26 07:52:54;;;;;;;11.23;4.55;;;;;;;-9.40;95.55;97926.41;4857931;29;20088;-69
2021/12/26 07:55:52;;;;;;;11.15;4.10;;;;;;;-9.18;95.94;97962.03;4854394;29;20502;-68
2021/12/26 07:58:36;;;;;;;;;;;;;;;-9.16;96.67;97968.91;4854452;29;20057;-68
2021/12/26 08:01:21;;;;;;;11.73;3.95;;;;;;;-9.11;96.65;97953.81;4857123;29;20388;-74
2021/12/26 08:04:11;;;;;;;13.50;4.00;;;;;;;-9.17;95.85;97943.66;4854463;29;20084;-72
2021/12/26 08:07:09;;;;;;;12.75;4.28;;;;;;;-9.09;95.36;97952.00;4863711;29;20182;-74
2021/12/26 08:09:35;;;;;;;12.10;3.97;;;;;;;-9.17;96.03;97943.66;4868298;29;20170;-72
2021/12/26 08:12:01;;;;;;;11.50;4.10;;;;;;;-9.26;96.11;97913.53;4831943;29;20057;-71
2021/12/26 08:14:27;;;;;;;13.25;5.30;;;;;;;-9.12;95.95;97944.28;4871278;29;20102;-67
2021/12/26 08:16:53;;;;;;;10.35;3.20;;;;;;;-9.04;96.33;97933.44;4857409;29;20057;-68
2021/12/26 08:19:19;;;;;;;12.20;3.75;;;;;;;-8.99;95.93;97932.31;4841998;29;20081;-73
2021/12/26 08:21:52;;;;;;;10.43;3.45;;;;;;;-8.99;94.19;97911.38;4874547;29;20061;-76
2021/12/26 08:24:19;;;;;;;8.98;3.10;;;;;;;-8.77;93.47;97939.16;4843654;29;20413;-72
2021/12/26 08:26:49;;;;;;;10.63;3.85;;;;;;;-8.87;92.43;97919.56;4842804;29;20044;-76
2021/12/26 08:29:16;;;;;;;10.15;2.58;;;;;;;-8.77;91.84;97921.66;4848254;29;20137;-72
2021/12/26 08:31:42;;;;;;;10.00;4.00;;;;;;;-8.74;91.35;97918.03;4860067;29;20132;-71
2021/12/26 08:34:08;;;;;;;9.77;3.17;;;;;;;-8.69;90.76;97907.34;4848228;29;20096;-74
2021/12/26 08:36:35;;;;;;;9.73;3.75;;;;;;;-8.68;90.81;97915.13;4865583;29;20061;-74
2021/12/26 08:39:03;;;;;;;17.55;3.60;;;;;;;-8.58;90.50;97915.53;4869560;23;20065;-73
2021/12/26 08:41:33;;;;;;;11.50;3.22;;;;;;;-8.74;90.42;97889.22;4883406;29;20053;-78
2021/12/26 08:47:06;;;;;;;17.40;4.60;;;;;;;-8.82;90.55;97880.91;3250175;27;20490;-67
2021/12/26 08:49:33;;;;;;;11.32;3.42;;;;;;;-8.58;90.84;97902.44;4845120;29;20061;-69
2021/12/26 08:51:59;;;;;;;9.10;3.25;;;;;;;-8.58;91.39;97905.06;4826944;29;20064;-70
2021/12/26 08:54:28;;;;;;;10.38;3.03;;;;;;;-8.67;91.66;97884.53;4859691;29;20057;-70
2021/12/26 08:56:54;;;;;;;9.02;3.40;;;;;;;-8.69;92.44;97878.56;4827095;29;20065;-70
2021/12/26 08:59:21;;;;;;;10.25;3.42;;;;;;;-8.60;93.19;97897.25;4827416;29;20152;-69
2021/12/26 09:01:47;;;;;;;8.63;3.33;;;;;;;-8.60;93.42;97885.94;4827377;29;20045;-68
2021/12/26 09:04:13;;;;;;;9.40;3.80;;;;;;;-8.67;94.00;97879.31;4830087;29;20473;-69
2021/12/26 09:06:39;;;;;;;11.15;4.25;;;;;;;-8.65;93.56;97883.56;4830239;29;20146;-69
2021/12/26 09:09:05;;;;;;;10.75;3.65;;;;;;;-8.51;94.24;97891.56;4850668;29;20053;-69
2021/12/26 09:11:33;;;;;;;12.32;3.60;;;;;;;-8.50;93.98;97882.78;4826858;29;20124;-69
2021/12/26 09:13:58;;;;;;;11.13;3.78;;;;;;;-8.46;93.76;97887.88;4826896;29;20103;-69
2021/12/26 09:16:25;;;;;;;11.63;3.58;;;;;;;-8.46;93.22;97882.63;4825773;29;20514;-69
2021/12/26 09:18:51;;;;;;;11.65;4.43;;;;;;;-8.51;92.92;97865.38;4824363;29;20353;-69
2021/12/26 09:21:17;;;;;;;10.65;4.10;;;;;;;-8.42;92.26;97884.16;4821207;29;20510;-69
2021/12/26 09:23:43;;;;;;;25.92;3.92;;;;;;;-8.37;92.21;97876.91;4812781;29;20426;-69
2021/12/26 09:26:10;;;;;;;11.57;3.95;;;;;;;-8.59;91.90;97851.81;4840641;29;20087;-70
2021/12/26 09:28:38;;;;;;;12.32;3.92;;;;;;;-8.37;92.53;97871.66;4810441;29;20073;-70
2021/12/26 09:31:04;;;;;;;13.13;4.40;;;;;;;-8.31;92.81;97859.06;4811903;29;20481;-69
2021/12/26 09:33:30;;;;;;;9.35;3.42;;;;;;;-8.29;91.81;97853.78;4804195;29;20575;-70
2021/12/26 09:35:57;;;;;;;10.50;3.20;;;;;;;-8.30;91.25;97852.06;4813135;29;20085;-70
2021/12/26 09:38:24;;;;;;;14.35;4.32;;;;;;;-8.42;91.00;97839.63;4814364;29;20156;-69
2021/12/26 09:40:50;;;;;;;10.98;3.85;;;;;;;-8.32;90.99;97854.78;4841023;29;20156;-69
2021/12/26 09:43:16;;;;;;;11.77;3.72;;;;;;;-8.37;91.92;97840.22;4828277;29;20077;-69
2021/12/26 09:45:43;;;;;;;11.77;3.45;;;;;;;-8.27;92.21;97857.16;4840017;29;20501;-68
2021/12/26 09:48:09;;;;;;;11.73;4.00;;;;;;;-8.28;91.27;97844.97;4807413;29;20057;-69
2021/12/26 09:50:35;;;;;;;10.38;3.80;;;;;;;-8.25;90.67;97829.94;4844475;29;20068;-68
2021/12/26 09:53:01;;;;;;;11.68;3.03;;;;;;;-8.07;91.03;97849.09;4804975;29;20490;-69
2021/12/26 09:55:28;;;;;;;11.27;2.50;;;;;;;-8.36;90.58;97794.75;4845948;29;20137;-68
2021/12/26 09:57:54;;;;;;;9.60;3.40;;;;;;;-7.95;90.11;97841.53;4829032;29;20085;-69
2021/12/26 10:00:29;;;;;;;17.30;3.28;;;;;;;-7.99;90.46;97850.47;4836450;29;20092;-69
2021/12/26 10:03:20;;;;;;;12.05;5.00;;;;;;;-8.17;90.70;97832.16;4829346;29;20415;-68
2021/12/26 10:06:01;;;;;;;9.95;3.92;;;;;;;-8.13;91.83;97828.44;4844309;29;20064;-68
2021/12/26 10:08:28;;;;;;;10.90;3.42;;;;;;;-8.08;92.23;97826.44;4844673;29;20144;-69
2021/12/26 10:11:10;;;;;;;12.02;3.67;;;;;;;-7.96;92.19;97839.84;4859781;29;20057;-69
2021/12/26 10:13:45;;;;;;;11.18;3.85;;;;;;;-7.95;91.57;97831.88;4858451;29;20068;-69
2021/12/26 10:16:14;;;;;;;12.25;4.38;;;;;;;-8.02;90.89;97815.63;4844532;29;20351;-69
2021/12/26 10:18:41;;;;;;;13.70;3.78;;;;;;;-8.06;90.89;97808.84;4818078;29;20054;-71
2021/12/26 10:21:26;;;;;;;9.75;3.53;;;;;;;-7.97;90.36;97825.00;4847354;29;20058;-69
2021/12/26 10:23:53;;;;;;;15.57;3.85;;;;;;;-8.22;90.46;97784.41;4844392;29;20045;-69
2021/12/26 10:26:21;;;;;;;10.07;2.97;;;;;;;-8.04;91.75;97801.75;4859650;29;20053;-69
2021/12/26 10:29:10;;;;;;;9.15;3.03;;;;;;;-8.20;91.39;97774.66;4844388;29;20057;-69
2021/12/26 10:31:41;;;;;;;8.55;3.03;;;;;;;-8.11;91.37;97778.59;4822768;29;20060;-69
2021/12/26 10:34:14;;;;;;;13.32;3.90;;;;;;;-7.91;92.22;97816.81;4839112;29;20060;-69
2021/12/26 10:36:47;;;;;;;10.60;3.63;;;;;;;-7.89;92.41;97814.97;4841463;29;20100;-69
2021/12/26 10:39:17;;;;;;;10.77;3.70;;;;;;;-7.81;91.65;97807.53;4820343;29;20126;-69
2021/12/26 10:41:56;;;;;;;10.30;3.40;;;;;;;-7.80;90.99;97810.06;4829622;29;20475;-69
2021/12/26 10:44:36;;;;;;;11.93;3.47;;;;;;;-7.84;91.63;97795.44;4841090;29;20058;-70
2021/12/26 10:47:07;;;;;;;9.93;3.88;;;;;;;-7.90;92.72;97787.03;4856437;29;20130;-69
2021/12/26 10:49:39;;;;;;;10.55;3.65;;;;;;;-7.88;92.46;97798.31;4857573;29;20065;-69
2021/12/26 10:52:15;;;;;;;12.40;3.83;;;;;;;-8.11;92.71;97763.69;4859013;29;20491;-69
2021/12/26 10:54:44;;;;;;;10.98;3.80;;;;;;;-7.95;92.93;97770.72;4857219;29;20514;-69
2021/12/26 10:57:20;;;;;;;9.68;3.25;;;;;;;-7.92;93.38;97767.94;4863033;29;20071;-69
2021/12/26 10:59:48;;;;;;;9.63;3.40;;;;;;;-7.90;93.70;97779.19;4843221;29;20065;-74
2021/12/26 11:02:21;;;;;;;10.25;3.90;;;;;;;-8.10;93.83;97756.69;4859533;29;20061;-68
2021/12/26 11:04:59;;;;;;;9.85;3.95;;;;;;;-7.96;95.14;97774.28;4858162;29;20097;-73
2021/12/26 11:07:26;;;;;;;16.60;4.43;;;;;;;-8.31;95.69;97730.69;4863893;29;20084;-73
2021/12/26 11:10:07;;;;;;;11.38;4.40;;;;;;;-8.20;96.46;97758.94;4813805;29;20508;-73
2021/12/26 11:12:43;;;;;;;13.50;4.78;;;;;;;-8.09;98.02;97777.56;4847713;29;20168;-73
2021/12/26 11:15:10;;;;;;;10.35;3.20;;;;;;;-8.48;97.24;97695.84;4858541;29;20082;-70
2021/12/26 11:17:44;;;;;;;14.43;3.95;;;;;;;-8.36;96.46;97711.75;4842411;29;20049;-75
2021/12/26 11:20:21;;;;;;;11.60;4.20;;;;;;;-8.16;96.44;97759.63;4861485;29;20046;-68
2021/12/26 11:22:48;;;;;;;11.18;4.50;;;;;;;-8.07;96.08;97765.22;4859108;29;20053;-70
2021/12/26 11:25:14;;;;;;;11.57;4.28;;;;;;;-8.14;96.12;97742.88;4822374;29;20049;-70
2021/12/26 11:27:40;;;;;;;12.48;4.63;;;;;;;-8.07;95.67;97752.13;4819970;29;20068;-72
2021/12/26 11:30:09;;;;;;;12.23;3.90;;;;;;;-8.09;95.08;97740.84;4848116;29;20052;-68
2021/12/26 11:32:35;;;;;;;10.98;3.95;;;;;;;-8.01;94.04;97737.81;4849662;29;20053;-73
2021/12/26 11:35:02;;;;;;;12.32;4.60;;;;;;;-7.87;94.04;97766.75;4821742;29;20061;-69
2021/12/26 11:37:30;;;;;;;15.38;3.95;;;;;;;-7.95;93.65;97755.00;4810310;29;20096;-69
2021/12/26 11:40:16;;;;;;;12.27;3.47;;;;;;;-7.88;93.99;97764.22;4841914;29;20050;-69
2021/12/26 11:43:23;;;;;;;8.68;2.95;;;;;;;-7.84;93.12;97757.88;4855995;29;20076;-69